sensor_id;sensor_type;location;lat;lon;timestamp;P1;durP1;ratioP1;P2;durP2;ratioP2
16403;SDS011;8311;50.158;8.642;2024-01-30T00:01:07;7.00;;;4.60;;
16403;SDS011;8311;50.158;8.642;2024-01-30T00:04:01;7.68;;;4.38;;
16403;SDS011;8311;50.158;8.642;2024-01-30T00:06:55;7.15;;;4.32;;
16403;SDS011;8311;50.158;8.642;2024-01-30T00:09:48;7.28;;;4.30;;
16403;SDS011;8311;50.158;8.642;2024-01-30T00:12:42;8.32;;;4.05;;
16403;SDS011;8311;50.158;8.642;2024-01-30T00:15:36;7.95;;;4.80;;
16403;SDS011;8311;50.158;8.642;2024-01-30T00:18:29;7.57;;;4.32;;
16403;SDS011;8311;50.158;8.642;2024-01-30T00:21:24;6.65;;;4.18;;
16403;SDS011;8311;50.158;8.642;2024-01-30T00:24:18;6.53;;;4.88;;
16403;SDS011;8311;50.158;8.642;2024-01-30T00:27:11;6.53;;;4.38;;
16403;SDS011;8311;50.158;8.642;2024-01-30T00:30:04;7.85;;;4.50;;
16403;SDS011;8311;50.158;8.642;2024-01-30T00:32:58;6.82;;;3.95;;
16403;SDS011;8311;50.158;8.642;2024-01-30T00:35:51;6.93;;;4.55;;
16403;SDS011;8311;50.158;8.642;2024-01-30T00:38:45;7.97;;;3.75;;
16403;SDS011;8311;50.158;8.642;2024-01-30T00:41:39;6.28;;;4.35;;
16403;SDS011;8311;50.158;8.642;2024-01-30T00:44:34;6.25;;;3.83;;
16403;SDS011;8311;50.158;8.642;2024-01-30T00:47:29;6.95;;;3.90;;
16403;SDS011;8311;50.158;8.642;2024-01-30T00:50:25;6.93;;;4.13;;
16403;SDS011;8311;50.158;8.642;2024-01-30T00:53:17;7.57;;;3.80;;
16403;SDS011;8311;50.158;8.642;2024-01-30T00:59:56;6.55;;;4.10;;
16403;SDS011;8311;50.158;8.642;2024-01-30T01:02:50;6.88;;;4.10;;
16403;SDS011;8311;50.158;8.642;2024-01-30T01:05:43;6.38;;;4.05;;
16403;SDS011;8311;50.158;8.642;2024-01-30T01:08:36;6.18;;;4.13;;
16403;SDS011;8311;50.158;8.642;2024-01-30T01:11:29;7.22;;;4.20;;
16403;SDS011;8311;50.158;8.642;2024-01-30T01:14:22;6.65;;;4.07;;
16403;SDS011;8311;50.158;8.642;2024-01-30T01:17:17;7.10;;;3.40;;
16403;SDS011;8311;50.158;8.642;2024-01-30T01:20:11;5.22;;;3.05;;
16403;SDS011;8311;50.158;8.642;2024-01-30T01:23:05;7.75;;;4.25;;
16403;SDS011;8311;50.158;8.642;2024-01-30T01:25:58;6.20;;;3.72;;
16403;SDS011;8311;50.158;8.642;2024-01-30T01:28:52;6.55;;;4.00;;
16403;SDS011;8311;50.158;8.642;2024-01-30T01:31:45;6.15;;;3.70;;
16403;SDS011;8311;50.158;8.642;2024-01-30T01:34:39;5.57;;;4.00;;
16403;SDS011;8311;50.158;8.642;2024-01-30T01:37:33;8.23;;;4.35;;
16403;SDS011;8311;50.158;8.642;2024-01-30T01:40:26;6.25;;;4.20;;
16403;SDS011;8311;50.158;8.642;2024-01-30T01:43:20;5.53;;;3.50;;
16403;SDS011;8311;50.158;8.642;2024-01-30T01:49:31;6.53;;;3.78;;
16403;SDS011;8311;50.158;8.642;2024-01-30T01:52:25;6.45;;;3.72;;
16403;SDS011;8311;50.158;8.642;2024-01-30T01:55:19;5.60;;;3.40;;
16403;SDS011;8311;50.158;8.642;2024-01-30T01:58:16;8.13;;;4.55;;
16403;SDS011;8311;50.158;8.642;2024-01-30T02:01:10;5.32;;;3.75;;
16403;SDS011;8311;50.158;8.642;2024-01-30T02:04:05;5.90;;;3.70;;
16403;SDS011;8311;50.158;8.642;2024-01-30T02:06:59;5.80;;;3.60;;
16403;SDS011;8311;50.158;8.642;2024-01-30T02:09:53;6.18;;;3.85;;
16403;SDS011;8311;50.158;8.642;2024-01-30T02:12:48;5.55;;;3.42;;
16403;SDS011;8311;50.158;8.642;2024-01-30T02:15:40;7.10;;;3.75;;
16403;SDS011;8311;50.158;8.642;2024-01-30T02:18:34;5.45;;;3.50;;
16403;SDS011;8311;50.158;8.642;2024-01-30T02:25:12;6.45;;;3.42;;
16403;SDS011;8311;50.158;8.642;2024-01-30T02:28:06;6.88;;;3.80;;
16403;SDS011;8311;50.158;8.642;2024-01-30T02:30:59;5.88;;;3.45;;
16403;SDS011;8311;50.158;8.642;2024-01-30T02:33:52;6.03;;;3.75;;
16403;SDS011;8311;50.158;8.642;2024-01-30T02:36:45;6.47;;;3.80;;
16403;SDS011;8311;50.158;8.642;2024-01-30T02:39:38;7.18;;;3.92;;
16403;SDS011;8311;50.158;8.642;2024-01-30T02:42:32;4.45;;;3.33;;
16403;SDS011;8311;50.158;8.642;2024-01-30T02:45:26;5.88;;;3.85;;
16403;SDS011;8311;50.158;8.642;2024-01-30T02:48:19;4.72;;;2.97;;
16403;SDS011;8311;50.158;8.642;2024-01-30T02:51:12;6.70;;;3.95;;
16403;SDS011;8311;50.158;8.642;2024-01-30T02:54:05;5.43;;;3.35;;
16403;SDS011;8311;50.158;8.642;2024-01-30T02:56:58;6.18;;;3.70;;
16403;SDS011;8311;50.158;8.642;2024-01-30T02:59:52;6.07;;;3.47;;
16403;SDS011;8311;50.158;8.642;2024-01-30T03:02:46;5.53;;;3.40;;
16403;SDS011;8311;50.158;8.642;2024-01-30T03:05:39;5.13;;;3.72;;
16403;SDS011;8311;50.158;8.642;2024-01-30T03:08:32;6.00;;;3.58;;
16403;SDS011;8311;50.158;8.642;2024-01-30T03:11:26;5.80;;;3.60;;
16403;SDS011;8311;50.158;8.642;2024-01-30T03:14:19;6.40;;;3.50;;
16403;SDS011;8311;50.158;8.642;2024-01-30T03:17:13;6.85;;;4.20;;
16403;SDS011;8311;50.158;8.642;2024-01-30T03:20:07;5.10;;;3.22;;
16403;SDS011;8311;50.158;8.642;2024-01-30T03:23:01;5.07;;;3.20;;
16403;SDS011;8311;50.158;8.642;2024-01-30T03:25:54;6.68;;;3.45;;
16403;SDS011;8311;50.158;8.642;2024-01-30T03:28:47;6.35;;;3.28;;
16403;SDS011;8311;50.158;8.642;2024-01-30T03:31:40;4.88;;;3.17;;
16403;SDS011;8311;50.158;8.642;2024-01-30T03:34:34;6.63;;;3.65;;
16403;SDS011;8311;50.158;8.642;2024-01-30T03:37:27;6.20;;;3.22;;
16403;SDS011;8311;50.158;8.642;2024-01-30T03:40:20;5.75;;;3.50;;
16403;SDS011;8311;50.158;8.642;2024-01-30T03:43:13;6.43;;;4.03;;
16403;SDS011;8311;50.158;8.642;2024-01-30T03:46:06;4.85;;;3.28;;
16403;SDS011;8311;50.158;8.642;2024-01-30T03:49:00;4.93;;;3.00;;
16403;SDS011;8311;50.158;8.642;2024-01-30T03:51:54;5.40;;;3.08;;
16403;SDS011;8311;50.158;8.642;2024-01-30T03:58:05;5.05;;;3.50;;
16403;SDS011;8311;50.158;8.642;2024-01-30T04:00:58;5.32;;;3.13;;
16403;SDS011;8311;50.158;8.642;2024-01-30T04:03:52;6.38;;;3.35;;
16403;SDS011;8311;50.158;8.642;2024-01-30T04:06:45;4.85;;;3.50;;
16403;SDS011;8311;50.158;8.642;2024-01-30T04:09:40;5.18;;;3.00;;
16403;SDS011;8311;50.158;8.642;2024-01-30T04:12:34;4.60;;;3.15;;
16403;SDS011;8311;50.158;8.642;2024-01-30T04:15:28;5.03;;;3.50;;
16403;SDS011;8311;50.158;8.642;2024-01-30T04:18:21;4.90;;;3.28;;
16403;SDS011;8311;50.158;8.642;2024-01-30T04:21:14;5.45;;;3.35;;
16403;SDS011;8311;50.158;8.642;2024-01-30T04:24:07;6.95;;;3.28;;
16403;SDS011;8311;50.158;8.642;2024-01-30T04:27:02;4.75;;;2.97;;
16403;SDS011;8311;50.158;8.642;2024-01-30T04:29:56;5.28;;;3.13;;
16403;SDS011;8311;50.158;8.642;2024-01-30T04:32:49;6.43;;;3.45;;
16403;SDS011;8311;50.158;8.642;2024-01-30T04:35:42;6.72;;;2.85;;
16403;SDS011;8311;50.158;8.642;2024-01-30T04:38:35;5.97;;;3.25;;
16403;SDS011;8311;50.158;8.642;2024-01-30T04:41:28;5.97;;;3.53;;
16403;SDS011;8311;50.158;8.642;2024-01-30T04:44:24;7.20;;;3.45;;
16403;SDS011;8311;50.158;8.642;2024-01-30T04:47:17;6.82;;;3.17;;
16403;SDS011;8311;50.158;8.642;2024-01-30T04:50:10;6.05;;;3.17;;
16403;SDS011;8311;50.158;8.642;2024-01-30T04:53:03;5.82;;;3.50;;
16403;SDS011;8311;50.158;8.642;2024-01-30T04:59:42;5.32;;;3.50;;
16403;SDS011;8311;50.158;8.642;2024-01-30T05:02:36;6.00;;;3.35;;
16403;SDS011;8311;50.158;8.642;2024-01-30T05:05:29;6.30;;;3.28;;
16403;SDS011;8311;50.158;8.642;2024-01-30T05:08:22;7.30;;;3.20;;
16403;SDS011;8311;50.158;8.642;2024-01-30T05:11:15;4.95;;;3.20;;
16403;SDS011;8311;50.158;8.642;2024-01-30T05:14:08;5.70;;;3.38;;
16403;SDS011;8311;50.158;8.642;2024-01-30T05:17:03;4.45;;;2.78;;
16403;SDS011;8311;50.158;8.642;2024-01-30T05:19:57;6.18;;;3.25;;
16403;SDS011;8311;50.158;8.642;2024-01-30T05:22:50;4.10;;;3.05;;
16403;SDS011;8311;50.158;8.642;2024-01-30T05:25:44;6.13;;;3.10;;
16403;SDS011;8311;50.158;8.642;2024-01-30T05:28:37;4.20;;;2.90;;
16403;SDS011;8311;50.158;8.642;2024-01-30T05:31:30;5.45;;;3.10;;
16403;SDS011;8311;50.158;8.642;2024-01-30T05:34:24;6.10;;;3.30;;
16403;SDS011;8311;50.158;8.642;2024-01-30T05:37:17;5.25;;;3.20;;
16403;SDS011;8311;50.158;8.642;2024-01-30T05:40:10;6.20;;;3.08;;
16403;SDS011;8311;50.158;8.642;2024-01-30T05:43:04;5.65;;;3.20;;
16403;SDS011;8311;50.158;8.642;2024-01-30T05:45:57;5.15;;;2.80;;
16403;SDS011;8311;50.158;8.642;2024-01-30T05:48:50;4.65;;;3.13;;
16403;SDS011;8311;50.158;8.642;2024-01-30T05:51:44;5.72;;;2.85;;
16403;SDS011;8311;50.158;8.642;2024-01-30T05:54:38;6.55;;;3.65;;
16403;SDS011;8311;50.158;8.642;2024-01-30T06:01:15;4.57;;;3.30;;
16403;SDS011;8311;50.158;8.642;2024-01-30T06:04:08;4.72;;;3.22;;
16403;SDS011;8311;50.158;8.642;2024-01-30T06:07:02;19.73;;;4.80;;
16403;SDS011;8311;50.158;8.642;2024-01-30T06:09:57;11.90;;;4.60;;
16403;SDS011;8311;50.158;8.642;2024-01-30T06:12:52;15.13;;;4.82;;
16403;SDS011;8311;50.158;8.642;2024-01-30T06:15:45;18.85;;;4.18;;
16403;SDS011;8311;50.158;8.642;2024-01-30T06:18:38;9.23;;;4.20;;
16403;SDS011;8311;50.158;8.642;2024-01-30T06:21:31;11.35;;;5.15;;
16403;SDS011;8311;50.158;8.642;2024-01-30T06:24:29;10.55;;;3.92;;
16403;SDS011;8311;50.158;8.642;2024-01-30T06:27:22;13.23;;;4.63;;
16403;SDS011;8311;50.158;8.642;2024-01-30T06:30:15;12.10;;;3.83;;
16403;SDS011;8311;50.158;8.642;2024-01-30T06:33:08;12.25;;;4.18;;
16403;SDS011;8311;50.158;8.642;2024-01-30T06:36:01;16.67;;;5.43;;
16403;SDS011;8311;50.158;8.642;2024-01-30T06:38:55;14.25;;;5.80;;
16403;SDS011;8311;50.158;8.642;2024-01-30T06:41:49;14.25;;;5.45;;
16403;SDS011;8311;50.158;8.642;2024-01-30T06:44:43;10.75;;;5.05;;
16403;SDS011;8311;50.158;8.642;2024-01-30T06:51:20;16.23;;;11.85;;
16403;SDS011;8311;50.158;8.642;2024-01-30T06:54:13;23.02;;;17.77;;
16403;SDS011;8311;50.158;8.642;2024-01-30T06:57:07;20.63;;;17.02;;
16403;SDS011;8311;50.158;8.642;2024-01-30T07:00:03;20.42;;;16.67;;
16403;SDS011;8311;50.158;8.642;2024-01-30T07:06:42;22.65;;;17.77;;
16403;SDS011;8311;50.158;8.642;2024-01-30T07:09:35;20.58;;;16.17;;
16403;SDS011;8311;50.158;8.642;2024-01-30T07:12:31;20.08;;;17.23;;
16403;SDS011;8311;50.158;8.642;2024-01-30T07:15:24;21.25;;;16.58;;
16403;SDS011;8311;50.158;8.642;2024-01-30T07:18:18;20.20;;;16.95;;
16403;SDS011;8311;50.158;8.642;2024-01-30T07:21:11;21.17;;;16.73;;
16403;SDS011;8311;50.158;8.642;2024-01-30T07:27:49;18.25;;;14.38;;
16403;SDS011;8311;50.158;8.642;2024-01-30T07:30:43;16.20;;;12.82;;
16403;SDS011;8311;50.158;8.642;2024-01-30T07:33:37;20.63;;;13.25;;
16403;SDS011;8311;50.158;8.642;2024-01-30T07:36:30;15.30;;;11.13;;
16403;SDS011;8311;50.158;8.642;2024-01-30T07:39:23;13.82;;;11.32;;
16403;SDS011;8311;50.158;8.642;2024-01-30T07:42:16;16.65;;;12.55;;
16403;SDS011;8311;50.158;8.642;2024-01-30T07:45:12;15.48;;;12.13;;
16403;SDS011;8311;50.158;8.642;2024-01-30T07:48:05;15.75;;;11.93;;
16403;SDS011;8311;50.158;8.642;2024-01-30T07:50:59;14.85;;;11.52;;
16403;SDS011;8311;50.158;8.642;2024-01-30T07:53:54;13.40;;;11.25;;
16403;SDS011;8311;50.158;8.642;2024-01-30T07:56:48;14.90;;;10.95;;
16403;SDS011;8311;50.158;8.642;2024-01-30T07:59:41;13.40;;;10.98;;
16403;SDS011;8311;50.158;8.642;2024-01-30T08:06:20;14.98;;;11.35;;
16403;SDS011;8311;50.158;8.642;2024-01-30T08:09:13;14.57;;;11.60;;
16403;SDS011;8311;50.158;8.642;2024-01-30T08:12:07;14.40;;;11.07;;
16403;SDS011;8311;50.158;8.642;2024-01-30T08:15:00;13.43;;;10.82;;
16403;SDS011;8311;50.158;8.642;2024-01-30T08:17:54;15.02;;;10.88;;
16403;SDS011;8311;50.158;8.642;2024-01-30T08:20:49;13.00;;;10.32;;
16403;SDS011;8311;50.158;8.642;2024-01-30T08:27:28;15.15;;;10.85;;
16403;SDS011;8311;50.158;8.642;2024-01-30T08:30:21;15.18;;;11.35;;
16403;SDS011;8311;50.158;8.642;2024-01-30T08:33:14;15.65;;;10.15;;
16403;SDS011;8311;50.158;8.642;2024-01-30T08:36:08;15.68;;;11.05;;
16403;SDS011;8311;50.158;8.642;2024-01-30T08:39:02;16.60;;;11.15;;
16403;SDS011;8311;50.158;8.642;2024-01-30T08:41:57;16.13;;;10.88;;
16403;SDS011;8311;50.158;8.642;2024-01-30T08:44:51;18.70;;;11.32;;
16403;SDS011;8311;50.158;8.642;2024-01-30T08:47:45;16.35;;;9.23;;
16403;SDS011;8311;50.158;8.642;2024-01-30T08:50:38;13.77;;;9.63;;
16403;SDS011;8311;50.158;8.642;2024-01-30T08:53:31;14.18;;;10.13;;
16403;SDS011;8311;50.158;8.642;2024-01-30T08:56:24;15.45;;;9.90;;
16403;SDS011;8311;50.158;8.642;2024-01-30T08:59:17;12.32;;;8.82;;
16403;SDS011;8311;50.158;8.642;2024-01-30T09:02:12;12.45;;;9.48;;
16403;SDS011;8311;50.158;8.642;2024-01-30T09:05:07;12.82;;;9.98;;
16403;SDS011;8311;50.158;8.642;2024-01-30T09:11:44;12.68;;;8.80;;
16403;SDS011;8311;50.158;8.642;2024-01-30T09:14:38;10.68;;;8.38;;
16403;SDS011;8311;50.158;8.642;2024-01-30T09:17:34;13.50;;;8.60;;
16403;SDS011;8311;50.158;8.642;2024-01-30T09:20:27;10.77;;;8.13;;
16403;SDS011;8311;50.158;8.642;2024-01-30T09:23:26;11.75;;;8.90;;
16403;SDS011;8311;50.158;8.642;2024-01-30T09:26:20;16.52;;;9.30;;
16403;SDS011;8311;50.158;8.642;2024-01-30T09:29:17;9.75;;;7.65;;
16403;SDS011;8311;50.158;8.642;2024-01-30T09:32:10;13.25;;;8.63;;
16403;SDS011;8311;50.158;8.642;2024-01-30T09:35:05;12.05;;;8.10;;
16403;SDS011;8311;50.158;8.642;2024-01-30T09:41:44;10.93;;;8.35;;
16403;SDS011;8311;50.158;8.642;2024-01-30T09:44:41;10.25;;;7.80;;
16403;SDS011;8311;50.158;8.642;2024-01-30T09:47:38;10.25;;;7.38;;
16403;SDS011;8311;50.158;8.642;2024-01-30T09:50:34;13.23;;;8.02;;
16403;SDS011;8311;50.158;8.642;2024-01-30T09:53:28;10.60;;;7.00;;
16403;SDS011;8311;50.158;8.642;2024-01-30T09:56:22;13.98;;;8.30;;
16403;SDS011;8311;50.158;8.642;2024-01-30T09:59:15;14.50;;;8.05;;
16403;SDS011;8311;50.158;8.642;2024-01-30T10:02:08;10.82;;;7.38;;
16403;SDS011;8311;50.158;8.642;2024-01-30T10:05:02;13.40;;;6.97;;
16403;SDS011;8311;50.158;8.642;2024-01-30T10:07:57;11.13;;;7.72;;
16403;SDS011;8311;50.158;8.642;2024-01-30T10:10:51;8.60;;;6.28;;
16403;SDS011;8311;50.158;8.642;2024-01-30T10:13:44;10.73;;;7.10;;
16403;SDS011;8311;50.158;8.642;2024-01-30T10:20:24;14.27;;;6.97;;
16403;SDS011;8311;50.158;8.642;2024-01-30T10:23:19;9.45;;;6.75;;
16403;SDS011;8311;50.158;8.642;2024-01-30T10:26:12;11.63;;;6.78;;
16403;SDS011;8311;50.158;8.642;2024-01-30T10:29:05;11.82;;;7.22;;
16403;SDS011;8311;50.158;8.642;2024-01-30T10:31:59;11.85;;;6.55;;
16403;SDS011;8311;50.158;8.642;2024-01-30T10:34:53;10.45;;;6.30;;
16403;SDS011;8311;50.158;8.642;2024-01-30T10:41:33;10.45;;;6.82;;
16403;SDS011;8311;50.158;8.642;2024-01-30T10:44:37;9.60;;;6.38;;
16403;SDS011;8311;50.158;8.642;2024-01-30T10:47:48;8.65;;;5.70;;
16403;SDS011;8311;50.158;8.642;2024-01-30T10:50:42;8.27;;;6.05;;
16403;SDS011;8311;50.158;8.642;2024-01-30T10:53:47;8.43;;;5.43;;
16403;SDS011;8311;50.158;8.642;2024-01-30T10:56:44;7.88;;;5.88;;
16403;SDS011;8311;50.158;8.642;2024-01-30T10:59:37;8.07;;;5.70;;
16403;SDS011;8311;50.158;8.642;2024-01-30T11:02:31;9.40;;;5.50;;
16403;SDS011;8311;50.158;8.642;2024-01-30T11:05:25;9.15;;;5.72;;
16403;SDS011;8311;50.158;8.642;2024-01-30T11:08:24;9.35;;;6.32;;
16403;SDS011;8311;50.158;8.642;2024-01-30T11:14:42;8.23;;;5.63;;
16403;SDS011;8311;50.158;8.642;2024-01-30T11:17:40;7.57;;;5.00;;
16403;SDS011;8311;50.158;8.642;2024-01-30T11:20:34;8.73;;;5.15;;
16403;SDS011;8311;50.158;8.642;2024-01-30T11:23:28;8.40;;;6.15;;
16403;SDS011;8311;50.158;8.642;2024-01-30T11:26:24;7.80;;;5.60;;
16403;SDS011;8311;50.158;8.642;2024-01-30T11:29:22;7.53;;;5.47;;
16403;SDS011;8311;50.158;8.642;2024-01-30T11:32:21;7.30;;;5.78;;
16403;SDS011;8311;50.158;8.642;2024-01-30T11:35:15;7.82;;;5.28;;
16403;SDS011;8311;50.158;8.642;2024-01-30T11:38:10;9.05;;;5.32;;
16403;SDS011;8311;50.158;8.642;2024-01-30T11:41:05;7.18;;;5.00;;
16403;SDS011;8311;50.158;8.642;2024-01-30T11:43:58;7.78;;;5.35;;
16403;SDS011;8311;50.158;8.642;2024-01-30T11:46:52;7.78;;;5.32;;
16403;SDS011;8311;50.158;8.642;2024-01-30T11:49:45;7.30;;;4.97;;
16403;SDS011;8311;50.158;8.642;2024-01-30T11:52:38;7.45;;;5.20;;
16403;SDS011;8311;50.158;8.642;2024-01-30T11:59:14;8.02;;;4.93;;
16403;SDS011;8311;50.158;8.642;2024-01-30T12:02:09;7.70;;;5.35;;
16403;SDS011;8311;50.158;8.642;2024-01-30T12:05:08;7.82;;;4.93;;
16403;SDS011;8311;50.158;8.642;2024-01-30T12:08:01;7.47;;;4.80;;
16403;SDS011;8311;50.158;8.642;2024-01-30T12:10:56;7.72;;;5.18;;
16403;SDS011;8311;50.158;8.642;2024-01-30T12:13:50;8.23;;;4.55;;
16403;SDS011;8311;50.158;8.642;2024-01-30T12:16:48;6.78;;;4.60;;
16403;SDS011;8311;50.158;8.642;2024-01-30T12:19:43;8.27;;;5.38;;
16403;SDS011;8311;50.158;8.642;2024-01-30T12:22:38;7.15;;;4.90;;
16403;SDS011;8311;50.158;8.642;2024-01-30T12:25:32;6.05;;;4.60;;
16403;SDS011;8311;50.158;8.642;2024-01-30T12:28:25;7.40;;;4.85;;
16403;SDS011;8311;50.158;8.642;2024-01-30T12:31:18;9.77;;;4.97;;
16403;SDS011;8311;50.158;8.642;2024-01-30T12:34:18;6.57;;;5.05;;
16403;SDS011;8311;50.158;8.642;2024-01-30T12:37:13;6.43;;;4.88;;
16403;SDS011;8311;50.158;8.642;2024-01-30T12:40:10;6.95;;;5.07;;
16403;SDS011;8311;50.158;8.642;2024-01-30T12:43:06;7.00;;;4.57;;
16403;SDS011;8311;50.158;8.642;2024-01-30T12:45:59;7.20;;;4.85;;
16403;SDS011;8311;50.158;8.642;2024-01-30T12:48:53;7.35;;;4.85;;
16403;SDS011;8311;50.158;8.642;2024-01-30T12:51:47;6.85;;;4.78;;
16403;SDS011;8311;50.158;8.642;2024-01-30T12:54:42;6.60;;;4.55;;
16403;SDS011;8311;50.158;8.642;2024-01-30T13:01:20;7.57;;;4.97;;
16403;SDS011;8311;50.158;8.642;2024-01-30T13:04:14;7.03;;;5.38;;
16403;SDS011;8311;50.158;8.642;2024-01-30T13:07:09;9.18;;;4.93;;
16403;SDS011;8311;50.158;8.642;2024-01-30T13:10:04;7.47;;;4.95;;
16403;SDS011;8311;50.158;8.642;2024-01-30T13:12:58;6.65;;;4.90;;
16403;SDS011;8311;50.158;8.642;2024-01-30T13:15:51;6.78;;;4.47;;
16403;SDS011;8311;50.158;8.642;2024-01-30T13:18:44;6.97;;;4.47;;
16403;SDS011;8311;50.158;8.642;2024-01-30T13:21:37;6.88;;;4.72;;
16403;SDS011;8311;50.158;8.642;2024-01-30T13:24:30;6.93;;;4.45;;
16403;SDS011;8311;50.158;8.642;2024-01-30T13:27:24;6.80;;;4.78;;
16403;SDS011;8311;50.158;8.642;2024-01-30T13:34:01;7.32;;;4.82;;
16403;SDS011;8311;50.158;8.642;2024-01-30T13:36:59;7.13;;;4.90;;
16403;SDS011;8311;50.158;8.642;2024-01-30T13:39:52;7.25;;;4.97;;
16403;SDS011;8311;50.158;8.642;2024-01-30T13:42:47;7.85;;;5.00;;
16403;SDS011;8311;50.158;8.642;2024-01-30T13:45:40;6.35;;;4.80;;
16403;SDS011;8311;50.158;8.642;2024-01-30T13:48:34;6.85;;;4.55;;
16403;SDS011;8311;50.158;8.642;2024-01-30T13:51:27;7.35;;;4.85;;
16403;SDS011;8311;50.158;8.642;2024-01-30T13:54:20;6.97;;;4.10;;
16403;SDS011;8311;50.158;8.642;2024-01-30T14:00:59;6.07;;;4.10;;
16403;SDS011;8311;50.158;8.642;2024-01-30T14:03:52;6.95;;;4.63;;
16403;SDS011;8311;50.158;8.642;2024-01-30T14:06:46;5.72;;;4.25;;
16403;SDS011;8311;50.158;8.642;2024-01-30T14:09:51;6.75;;;4.32;;
16403;SDS011;8311;50.158;8.642;2024-01-30T14:12:45;6.75;;;4.78;;
16403;SDS011;8311;50.158;8.642;2024-01-30T14:15:39;6.03;;;4.40;;
16403;SDS011;8311;50.158;8.642;2024-01-30T14:18:34;6.25;;;4.30;;
16403;SDS011;8311;50.158;8.642;2024-01-30T14:21:27;6.00;;;4.15;;
16403;SDS011;8311;50.158;8.642;2024-01-30T14:27:40;5.28;;;3.97;;
16403;SDS011;8311;50.158;8.642;2024-01-30T14:30:34;6.13;;;4.32;;
16403;SDS011;8311;50.158;8.642;2024-01-30T14:33:26;6.15;;;3.75;;
16403;SDS011;8311;50.158;8.642;2024-01-30T14:36:25;6.05;;;4.20;;
16403;SDS011;8311;50.158;8.642;2024-01-30T14:39:19;7.28;;;4.60;;
16403;SDS011;8311;50.158;8.642;2024-01-30T14:42:13;6.57;;;4.03;;
16403;SDS011;8311;50.158;8.642;2024-01-30T14:45:06;7.32;;;3.97;;
16403;SDS011;8311;50.158;8.642;2024-01-30T14:48:00;7.68;;;4.20;;
16403;SDS011;8311;50.158;8.642;2024-01-30T14:50:53;5.75;;;4.00;;
16403;SDS011;8311;50.158;8.642;2024-01-30T14:53:48;6.30;;;4.70;;
16403;SDS011;8311;50.158;8.642;2024-01-30T14:56:41;6.50;;;4.32;;
16403;SDS011;8311;50.158;8.642;2024-01-30T14:59:34;6.75;;;4.53;;
16403;SDS011;8311;50.158;8.642;2024-01-30T15:02:27;7.22;;;4.50;;
16403;SDS011;8311;50.158;8.642;2024-01-30T15:09:06;7.45;;;4.55;;
16403;SDS011;8311;50.158;8.642;2024-01-30T15:12:00;5.60;;;3.90;;
16403;SDS011;8311;50.158;8.642;2024-01-30T15:14:53;7.10;;;4.00;;
16403;SDS011;8311;50.158;8.642;2024-01-30T15:17:46;7.07;;;4.38;;
16403;SDS011;8311;50.158;8.642;2024-01-30T15:20:39;6.32;;;4.18;;
16403;SDS011;8311;50.158;8.642;2024-01-30T15:23:32;5.30;;;4.07;;
16403;SDS011;8311;50.158;8.642;2024-01-30T15:26:27;7.20;;;4.22;;
16403;SDS011;8311;50.158;8.642;2024-01-30T15:29:19;6.72;;;4.65;;
16403;SDS011;8311;50.158;8.642;2024-01-30T15:32:14;5.72;;;4.10;;
16403;SDS011;8311;50.158;8.642;2024-01-30T15:35:06;5.25;;;3.60;;
16403;SDS011;8311;50.158;8.642;2024-01-30T15:38:00;5.68;;;3.80;;
16403;SDS011;8311;50.158;8.642;2024-01-30T15:40:53;8.52;;;4.60;;
16403;SDS011;8311;50.158;8.642;2024-01-30T15:43:49;7.72;;;4.55;;
16403;SDS011;8311;50.158;8.642;2024-01-30T15:46:42;6.40;;;4.28;;
16403;SDS011;8311;50.158;8.642;2024-01-30T15:49:36;6.55;;;4.13;;
16403;SDS011;8311;50.158;8.642;2024-01-30T15:52:29;7.15;;;4.65;;
16403;SDS011;8311;50.158;8.642;2024-01-30T15:59:08;5.63;;;4.05;;
16403;SDS011;8311;50.158;8.642;2024-01-30T16:02:01;8.57;;;4.07;;
16403;SDS011;8311;50.158;8.642;2024-01-30T16:04:54;7.28;;;4.38;;
16403;SDS011;8311;50.158;8.642;2024-01-30T16:07:47;6.20;;;4.28;;
16403;SDS011;8311;50.158;8.642;2024-01-30T16:10:41;6.88;;;4.32;;
16403;SDS011;8311;50.158;8.642;2024-01-30T16:13:36;8.80;;;4.53;;
16403;SDS011;8311;50.158;8.642;2024-01-30T16:16:31;7.20;;;4.43;;
16403;SDS011;8311;50.158;8.642;2024-01-30T16:19:25;6.13;;;4.03;;
16403;SDS011;8311;50.158;8.642;2024-01-30T16:22:18;7.53;;;4.43;;
16403;SDS011;8311;50.158;8.642;2024-01-30T16:25:11;9.10;;;3.83;;
16403;SDS011;8311;50.158;8.642;2024-01-30T16:28:08;6.65;;;4.20;;
16403;SDS011;8311;50.158;8.642;2024-01-30T16:31:02;6.07;;;3.80;;
16403;SDS011;8311;50.158;8.642;2024-01-30T16:33:57;7.53;;;4.03;;
16403;SDS011;8311;50.158;8.642;2024-01-30T16:40:36;7.13;;;3.92;;
16403;SDS011;8311;50.158;8.642;2024-01-30T16:43:28;7.53;;;4.15;;
16403;SDS011;8311;50.158;8.642;2024-01-30T16:46:21;5.45;;;3.83;;
16403;SDS011;8311;50.158;8.642;2024-01-30T16:49:16;6.15;;;3.90;;
16403;SDS011;8311;50.158;8.642;2024-01-30T16:52:09;6.60;;;3.90;;
16403;SDS011;8311;50.158;8.642;2024-01-30T16:55:02;7.07;;;4.18;;
16403;SDS011;8311;50.158;8.642;2024-01-30T16:57:56;5.88;;;3.97;;
16403;SDS011;8311;50.158;8.642;2024-01-30T17:00:49;7.53;;;4.30;;
16403;SDS011;8311;50.158;8.642;2024-01-30T17:03:42;6.63;;;3.97;;
16403;SDS011;8311;50.158;8.642;2024-01-30T17:06:37;6.30;;;3.83;;
16403;SDS011;8311;50.158;8.642;2024-01-30T17:09:30;5.63;;;3.92;;
16403;SDS011;8311;50.158;8.642;2024-01-30T17:12:23;5.22;;;3.78;;
16403;SDS011;8311;50.158;8.642;2024-01-30T17:15:17;6.70;;;4.32;;
16403;SDS011;8311;50.158;8.642;2024-01-30T17:18:11;7.70;;;4.53;;
16403;SDS011;8311;50.158;8.642;2024-01-30T17:21:05;6.03;;;3.72;;
16403;SDS011;8311;50.158;8.642;2024-01-30T17:23:59;6.00;;;4.03;;
16403;SDS011;8311;50.158;8.642;2024-01-30T17:26:53;6.30;;;3.97;;
16403;SDS011;8311;50.158;8.642;2024-01-30T17:29:47;6.05;;;4.22;;
16403;SDS011;8311;50.158;8.642;2024-01-30T17:32:40;6.30;;;4.15;;
16403;SDS011;8311;50.158;8.642;2024-01-30T17:35:33;6.38;;;3.88;;
16403;SDS011;8311;50.158;8.642;2024-01-30T17:38:27;5.13;;;3.50;;
16403;SDS011;8311;50.158;8.642;2024-01-30T17:41:22;5.82;;;3.85;;
16403;SDS011;8311;50.158;8.642;2024-01-30T17:44:16;6.10;;;4.00;;
16403;SDS011;8311;50.158;8.642;2024-01-30T17:47:09;5.70;;;4.05;;
16403;SDS011;8311;50.158;8.642;2024-01-30T17:50:03;6.85;;;3.97;;
16403;SDS011;8311;50.158;8.642;2024-01-30T17:52:57;6.03;;;4.00;;
16403;SDS011;8311;50.158;8.642;2024-01-30T17:59:37;7.22;;;4.32;;
16403;SDS011;8311;50.158;8.642;2024-01-30T18:02:31;5.53;;;3.78;;
16403;SDS011;8311;50.158;8.642;2024-01-30T18:05:24;6.90;;;4.10;;
16403;SDS011;8311;50.158;8.642;2024-01-30T18:08:17;7.32;;;4.25;;
16403;SDS011;8311;50.158;8.642;2024-01-30T18:11:10;5.55;;;3.72;;
16403;SDS011;8311;50.158;8.642;2024-01-30T18:14:04;5.47;;;4.00;;
16403;SDS011;8311;50.158;8.642;2024-01-30T18:16:58;5.72;;;4.00;;
16403;SDS011;8311;50.158;8.642;2024-01-30T18:19:51;5.97;;;3.83;;
16403;SDS011;8311;50.158;8.642;2024-01-30T18:22:45;6.40;;;4.05;;
16403;SDS011;8311;50.158;8.642;2024-01-30T18:25:38;6.13;;;3.80;;
16403;SDS011;8311;50.158;8.642;2024-01-30T18:28:31;5.53;;;3.53;;
16403;SDS011;8311;50.158;8.642;2024-01-30T18:31:24;6.75;;;3.80;;
16403;SDS011;8311;50.158;8.642;2024-01-30T18:34:20;7.35;;;4.03;;
16403;SDS011;8311;50.158;8.642;2024-01-30T18:37:13;5.80;;;3.92;;
16403;SDS011;8311;50.158;8.642;2024-01-30T18:40:06;5.80;;;3.72;;
16403;SDS011;8311;50.158;8.642;2024-01-30T18:42:59;5.95;;;3.85;;
16403;SDS011;8311;50.158;8.642;2024-01-30T18:45:56;5.95;;;3.75;;
16403;SDS011;8311;50.158;8.642;2024-01-30T18:48:49;4.82;;;3.60;;
16403;SDS011;8311;50.158;8.642;2024-01-30T18:51:43;6.07;;;4.07;;
16403;SDS011;8311;50.158;8.642;2024-01-30T18:54:41;5.10;;;3.35;;
16403;SDS011;8311;50.158;8.642;2024-01-30T18:57:34;6.05;;;3.97;;
16403;SDS011;8311;50.158;8.642;2024-01-30T19:00:30;4.63;;;3.38;;
16403;SDS011;8311;50.158;8.642;2024-01-30T19:03:23;5.65;;;4.10;;
16403;SDS011;8311;50.158;8.642;2024-01-30T19:06:16;5.93;;;3.58;;
16403;SDS011;8311;50.158;8.642;2024-01-30T19:09:11;5.63;;;3.70;;
16403;SDS011;8311;50.158;8.642;2024-01-30T19:12:05;6.75;;;3.85;;